Mound Bayou, Mississippi
Current Conditions -  °F | °C
As of 8:35 AM on Saturday 25 Oct 2014 (Local Time) from KRNV Reporting Station
Clear Clear  
Wind Chill: 59°   Ceiling: Unl
Heat Index: 59°   Visibility: 10mi
Dew Point: 57°   Wind: 5mph
Humidity: 93%   Direction: 220°SW
Pressure: 30.13"   Gusts: NA
Location:  33.88°N, 90.73°W
Report Text: KRNV 251335Z AUTO 22004KT 10SM CLR 15/14 A3013 RMK AO2 T01490137
Loading
Personal Weather Stations






























Interactive Weather Map
Tropical Storm Tracking
New forecast layout! Learn more

10-Day Weather Forecast

Advertisements
Track Severe Weather on mobile